Time,TemperatureF,DewpointF,PressureIn,WindDirection,WindDirectionDegrees,WindSpeedMPH,WindSpeedGustMPH,Humidity,HourlyPrecipIn,Conditions,Clouds,dailyrainin,SoftwareType,DateUTC
2013-02-10 00:03:00,34.5,33.2,29.74,NE,39,1.0,2.0,95,0.00,,,0.00,Wunderground v.1.15,2013-02-10 08:03:00,
2013-02-10 00:09:00,34.4,33.1,29.74,NE,43,0.0,2.0,95,0.00,,,0.00,Wunderground v.1.15,2013-02-10 08:09:00,
2013-02-10 00:15:00,34.4,33.1,29.74,ENE,61,0.0,1.0,95,0.00,,,0.00,Wunderground v.1.15,2013-02-10 08:15:00,
2013-02-10 00:20:00,34.4,33.1,29.74,NE,44,1.0,1.0,95,0.00,,,0.00,Wunderground v.1.15,2013-02-10 08:20:00,
2013-02-10 00:25:00,34.2,32.7,29.74,NE,44,0.0,1.0,94,0.00,,,0.00,Wunderground v.1.15,2013-02-10 08:25:00,
2013-02-10 00:31:00,34.0,32.7,29.74,NE,40,0.0,1.0,95,0.00,,,0.00,Wunderground v.1.15,2013-02-10 08:31:00,
2013-02-10 00:36:00,34.1,32.8,29.74,ENE,67,0.0,1.0,95,0.00,,,0.00,Wunderground v.1.15,2013-02-10 08:36:00,
2013-02-10 00:41:00,34.1,32.8,29.74,ENE,64,1.0,3.0,95,0.00,,,0.00,Wunderground v.1.15,2013-02-10 08:41:00,
2013-02-10 00:47:00,34.3,33.0,29.74,East,86,1.0,3.0,95,0.00,,,0.00,Wunderground v.1.15,2013-02-10 08:47:00,
2013-02-10 00:53:00,34.5,33.2,29.74,ENE,58,1.0,3.0,95,0.00,,,0.00,Wunderground v.1.15,2013-02-10 08:53:00,
2013-02-10 00:58:00,34.7,33.4,29.74,ENE,69,1.0,3.0,95,0.00,,,0.00,Wunderground v.1.15,2013-02-10 08:58:00,
2013-02-10 01:04:00,34.7,33.4,29.74,ENE,57,1.0,1.0,95,0.00,,,0.00,Wunderground v.1.15,2013-02-10 09:04:00,
2013-02-10 01:09:00,34.7,33.4,29.74,ENE,60,0.0,1.0,95,0.00,,,0.00,Wunderground v.1.15,2013-02-10 09:09:00,
2013-02-10 01:15:00,34.5,33.2,29.74,ENE,69,0.0,1.0,95,0.00,,,0.00,Wunderground v.1.15,2013-02-10 09:15:00,
2013-02-10 01:21:00,34.4,33.1,29.73,ENE,65,0.0,0.0,95,0.00,,,0.00,Wunderground v.1.15,2013-02-10 09:21:00,
2013-02-10 01:27:00,34.3,33.0,29.73,NE,46,0.0,2.0,95,0.00,,,0.00,Wunderground v.1.15,2013-02-10 09:27:00,
2013-02-10 01:32:00,34.2,32.9,29.74,NE,38,0.0,0.0,95,0.00,,,0.00,Wunderground v.1.15,2013-02-10 09:32:00,
2013-02-10 01:38:00,34.1,32.8,29.73,NE,34,0.0,1.0,95,0.00,,,0.00,Wunderground v.1.15,2013-02-10 09:38:00,
2013-02-10 01:43:00,34.0,32.7,29.73,NNE,32,0.0,0.0,95,0.00,,,0.00,Wunderground v.1.15,2013-02-10 09:43:00,
2013-02-10 01:49:00,33.9,32.4,29.73,NNE,32,0.0,1.0,94,0.00,,,0.00,Wunderground v.1.15,2013-02-10 09:49:00,
2013-02-10 01:54:00,33.7,32.2,29.73,NNE,33,0.0,1.0,94,0.00,,,0.00,Wunderground v.1.15,2013-02-10 09:54:00,
2013-02-10 01:59:00,33.6,32.1,29.73,ENE,57,0.0,1.0,94,0.00,,,0.00,Wunderground v.1.15,2013-02-10 09:59:00,
2013-02-10 02:04:00,33.7,32.4,29.73,NE,53,0.0,1.0,95,0.00,,,0.00,Wunderground v.1.15,2013-02-10 10:04:00,
2013-02-10 02:09:00,33.9,32.6,29.72,NE,48,1.0,2.0,95,0.00,,,0.00,Wunderground v.1.15,2013-02-10 10:09:00,
2013-02-10 02:15:00,34.0,32.7,29.73,NE,44,1.0,1.0,95,0.00,,,0.00,Wunderground v.1.15,2013-02-10 10:15:00,
2013-02-10 02:20:00,34.0,32.7,29.72,NE,37,1.0,1.0,95,0.00,,,0.00,Wunderground v.1.15,2013-02-10 10:20:00,
2013-02-10 02:25:00,33.8,32.3,29.73,NE,37,0.0,1.0,94,0.00,,,0.00,Wunderground v.1.15,2013-02-10 10:25:00,
2013-02-10 02:31:00,33.7,32.2,29.72,NE,38,0.0,1.0,94,0.00,,,0.00,Wunderground v.1.15,2013-02-10 10:31:00,
2013-02-10 02:37:00,33.6,32.3,29.73,NE,42,0.0,1.0,95,0.00,,,0.00,Wunderground v.1.15,2013-02-10 10:37:00,
2013-02-10 02:42:00,33.4,31.9,29.72,NNW,342,1.0,2.0,94,0.00,,,0.00,Wunderground v.1.15,2013-02-10 10:42:00,
2013-02-10 02:48:00,33.3,32.0,29.73,North,360,2.0,2.0,95,0.00,,,0.00,Wunderground v.1.15,2013-02-10 10:48:00,
2013-02-10 02:53:00,33.3,32.0,29.72,North,355,1.0,2.0,95,0.00,,,0.00,Wunderground v.1.15,2013-02-10 10:53:00,
2013-02-10 02:59:00,33.2,31.9,29.72,North,355,1.0,2.0,95,0.00,,,0.00,Wunderground v.1.15,2013-02-10 10:59:00,
2013-02-10 03:05:00,33.1,31.8,29.72,North,355,0.0,1.0,95,0.00,,,0.00,Wunderground v.1.15,2013-02-10 11:05:00,
2013-02-10 03:11:00,32.9,31.6,29.72,North,350,0.0,0.0,95,0.00,,,0.00,Wunderground v.1.15,2013-02-10 11:11:00,
2013-02-10 03:17:00,32.8,31.5,29.72,NE,43,0.0,0.0,95,0.00,,,0.00,Wunderground v.1.15,2013-02-10 11:17:00,
2013-02-10 03:22:00,32.7,31.4,29.72,NE,44,0.0,0.0,95,0.00,,,0.00,Wunderground v.1.15,2013-02-10 11:22:00,
2013-02-10 03:27:00,32.6,31.3,29.72,NNE,24,0.0,1.0,95,0.00,,,0.00,Wunderground v.1.15,2013-02-10 11:27:00,
2013-02-10 03:33:00,32.4,31.1,29.72,NNE,22,0.0,1.0,95,0.00,,,0.00,Wunderground v.1.15,2013-02-10 11:33:00,
2013-02-10 03:38:00,32.3,31.0,29.72,NNE,25,0.0,1.0,95,0.00,,,0.00,Wunderground v.1.15,2013-02-10 11:38:00,
2013-02-10 03:44:00,32.2,30.9,29.72,NE,36,0.0,1.0,95,0.00,,,0.00,Wunderground v.1.15,2013-02-10 11:44:00,
2013-02-10 03:49:00,32.2,30.9,29.72,NNE,30,0.0,2.0,95,0.00,,,0.00,Wunderground v.1.15,2013-02-10 11:49:00,
2013-02-10 03:55:00,32.2,30.9,29.72,NNE,13,0.0,2.0,95,0.00,,,0.00,Wunderground v.1.15,2013-02-10 11:55:00,
2013-02-10 04:00:00,32.1,30.8,29.72,North,5,0.0,1.0,95,0.00,,,0.00,Wunderground v.1.15,2013-02-10 12:00:00,
2013-02-10 04:06:00,32.1,30.8,29.72,NNE,31,0.0,1.0,95,0.00,,,0.00,Wunderground v.1.15,2013-02-10 12:06:00,
2013-02-10 04:11:00,32.1,30.8,29.72,NNE,17,0.0,2.0,95,0.00,,,0.00,Wunderground v.1.15,2013-02-10 12:11:00,
2013-02-10 04:17:00,32.2,30.9,29.72,North,355,1.0,5.0,95,0.00,,,0.00,Wunderground v.1.15,2013-02-10 12:17:00,
2013-02-10 04:22:00,32.3,31.3,29.72,North,5,1.0,1.0,96,0.00,,,0.00,Wunderground v.1.15,2013-02-10 12:22:00,
2013-02-10 04:27:00,32.5,31.5,29.72,NNE,25,1.0,2.0,96,0.00,,,0.00,Wunderground v.1.15,2013-02-10 12:27:00,
2013-02-10 04:33:00,32.6,31.6,29.72,NE,39,0.0,1.0,96,0.00,,,0.00,Wunderground v.1.15,2013-02-10 12:33:00,
2013-02-10 04:39:00,32.6,31.6,29.72,NE,42,0.0,1.0,96,0.00,,,0.00,Wunderground v.1.15,2013-02-10 12:39:00,
2013-02-10 04:45:00,32.7,31.4,29.72,NE,53,0.0,0.0,95,0.00,,,0.00,Wunderground v.1.15,2013-02-10 12:45:00,
2013-02-10 04:50:00,32.7,31.4,29.72,NNE,13,0.0,0.0,95,0.00,,,0.00,Wunderground v.1.15,2013-02-10 12:50:00,
2013-02-10 04:55:00,32.7,31.4,29.72,NNE,13,0.0,0.0,95,0.00,,,0.00,Wunderground v.1.15,2013-02-10 12:55:00,
2013-02-10 05:01:00,32.6,31.3,29.72,NNW,346,0.0,0.0,95,0.00,,,0.00,Wunderground v.1.15,2013-02-10 13:01:00,
2013-02-10 05:06:00,32.6,31.3,29.72,NNW,346,0.0,1.0,95,0.00,,,0.00,Wunderground v.1.15,2013-02-10 13:06:00,
2013-02-10 05:12:00,32.6,31.3,29.72,NNW,346,0.0,1.0,95,0.00,,,0.00,Wunderground v.1.15,2013-02-10 13:12:00,
2013-02-10 05:18:00,32.5,31.2,29.72,NNW,336,0.0,4.0,95,0.00,,,0.00,Wunderground v.1.15,2013-02-10 13:18:00,
2013-02-10 05:23:00,32.4,31.1,29.72,NNW,342,0.0,2.0,95,0.00,,,0.00,Wunderground v.1.15,2013-02-10 13:23:00,
2013-02-10 05:29:00,32.2,30.9,29.72,NW,315,0.0,2.0,95,0.00,,,0.00,Wunderground v.1.15,2013-02-10 13:29:00,
2013-02-10 05:34:00,32.2,30.9,29.72,WNW,292,0.0,3.0,95,0.00,,,0.00,Wunderground v.1.15,2013-02-10 13:34:00,
2013-02-10 05:40:00,32.1,30.8,29.71,NNW,348,1.0,1.0,95,0.00,,,0.00,Wunderground v.1.15,2013-02-10 13:40:00,
2013-02-10 05:46:00,32.2,30.9,29.72,NNW,338,1.0,1.0,95,0.00,,,0.00,Wunderground v.1.15,2013-02-10 13:46:00,
2013-02-10 05:51:00,32.2,30.9,29.72,North,360,0.0,0.0,95,0.00,,,0.00,Wunderground v.1.15,2013-02-10 13:51:00,
2013-02-10 05:56:00,32.2,30.9,29.72,NNE,32,0.0,1.0,95,0.00,,,0.00,Wunderground v.1.15,2013-02-10 13:56:00,
2013-02-10 06:02:00,32.2,30.9,29.72,ENE,61,0.0,1.0,95,0.00,,,0.00,Wunderground v.1.15,2013-02-10 14:02:00,
2013-02-10 06:08:00,32.2,30.9,29.72,North,10,0.0,1.0,95,0.00,,,0.00,Wunderground v.1.15,2013-02-10 14:08:00,
2013-02-10 06:13:00,32.1,30.8,29.72,North,10,0.0,0.0,95,0.00,,,0.00,Wunderground v.1.15,2013-02-10 14:13:00,
2013-02-10 06:19:00,32.0,30.7,29.72,ENE,75,0.0,1.0,95,0.00,,,0.00,Wunderground v.1.15,2013-02-10 14:19:00,
2013-02-10 06:24:00,32.0,30.7,29.72,NE,55,0.0,3.0,95,0.00,,,0.00,Wunderground v.1.15,2013-02-10 14:24:00,
2013-02-10 06:29:00,32.2,30.9,29.72,ENE,69,1.0,3.0,95,0.00,,,0.00,Wunderground v.1.15,2013-02-10 14:29:00,
2013-02-10 06:35:00,32.3,31.0,29.72,East,80,0.0,1.0,95,0.00,,,0.00,Wunderground v.1.15,2013-02-10 14:35:00,
2013-02-10 06:40:00,32.3,31.0,29.72,East,80,0.0,0.0,95,0.00,,,0.00,Wunderground v.1.15,2013-02-10 14:40:00,
2013-02-10 06:46:00,32.2,30.9,29.72,NNE,20,0.0,1.0,95,0.00,,,0.00,Wunderground v.1.15,2013-02-10 14:46:00,
2013-02-10 06:52:00,32.1,30.8,29.72,ENE,67,0.0,0.0,95,0.00,,,0.00,Wunderground v.1.15,2013-02-10 14:52:00,
2013-02-10 06:57:00,32.0,30.7,29.72,NE,39,0.0,0.0,95,0.00,,,0.00,Wunderground v.1.15,2013-02-10 14:57:00,
2013-02-10 07:03:00,31.9,30.6,29.73,NE,46,0.0,0.0,95,0.00,,,0.00,Wunderground v.1.15,2013-02-10 15:03:00,
2013-02-10 07:09:00,31.9,30.6,29.73,ENE,67,0.0,2.0,95,0.00,,,0.00,Wunderground v.1.15,2013-02-10 15:09:00,
2013-02-10 07:15:00,31.9,30.6,29.73,ENE,71,0.0,1.0,95,0.00,,,0.00,Wunderground v.1.15,2013-02-10 15:15:00,
2013-02-10 07:20:00,32.1,30.8,29.73,ENE,61,0.0,0.0,95,0.00,,,0.00,Wunderground v.1.15,2013-02-10 15:20:00,
2013-02-10 07:25:00,32.2,31.2,29.73,ENE,71,0.0,0.0,96,0.00,,,0.00,Wunderground v.1.15,2013-02-10 15:25:00,
2013-02-10 07:31:00,32.4,31.4,29.73,ENE,65,0.0,1.0,96,0.00,,,0.00,Wunderground v.1.15,2013-02-10 15:31:00,
2013-02-10 07:36:00,32.8,31.8,29.73,NE,46,1.0,2.0,96,0.00,,,0.00,Wunderground v.1.15,2013-02-10 15:36:00,
2013-02-10 07:41:00,33.1,32.1,29.73,NE,56,1.0,1.0,96,0.00,,,0.00,Wunderground v.1.15,2013-02-10 15:41:00,
2013-02-10 07:47:00,33.5,32.5,29.73,ENE,70,1.0,4.0,96,0.00,,,0.00,Wunderground v.1.15,2013-02-10 15:47:00,
2013-02-10 07:53:00,34.2,33.4,29.74,East,92,1.0,1.0,97,0.00,,,0.00,Wunderground v.1.15,2013-02-10 15:53:00,
2013-02-10 07:59:00,34.8,33.8,29.74,ENE,75,1.0,2.0,96,0.00,,,0.00,Wunderground v.1.15,2013-02-10 15:59:00,
2013-02-10 08:05:00,35.5,34.5,29.74,ESE,106,1.0,3.0,96,0.00,,,0.00,Wunderground v.1.15,2013-02-10 16:05:00,
2013-02-10 08:11:00,36.2,34.9,29.74,East,84,1.0,2.0,95,0.00,,,0.00,Wunderground v.1.15,2013-02-10 16:11:00,
2013-02-10 08:17:00,36.9,35.3,29.74,East,81,1.0,5.0,94,0.00,,,0.00,Wunderground v.1.15,2013-02-10 16:17:00,
2013-02-10 08:23:00,37.5,35.7,29.74,East,88,1.0,5.0,93,0.00,,,0.00,Wunderground v.1.15,2013-02-10 16:23:00,
2013-02-10 08:28:00,38.3,36.5,29.74,ENE,71,2.0,5.0,93,0.00,,,0.00,Wunderground v.1.15,2013-02-10 16:28:00,
2013-02-10 08:34:00,39.3,36.9,29.74,ENE,74,2.0,3.0,91,0.00,,,0.00,Wunderground v.1.15,2013-02-10 16:34:00,
2013-02-10 08:39:00,40.1,37.1,29.74,ENE,64,2.0,3.0,89,0.00,,,0.00,Wunderground v.1.15,2013-02-10 16:39:00,
2013-02-10 08:44:00,41.2,37.6,29.74,ENE,57,2.0,6.0,87,0.00,,,0.00,Wunderground v.1.15,2013-02-10 16:44:00,
2013-02-10 08:50:00,42.3,37.5,29.74,ENE,68,2.0,2.0,83,0.00,,,0.00,Wunderground v.1.15,2013-02-10 16:50:00,
2013-02-10 08:56:00,43.2,37.8,29.74,ENE,61,3.0,4.0,81,0.00,,,0.00,Wunderground v.1.15,2013-02-10 16:56:00,
2013-02-10 09:01:00,44.1,37.3,29.74,NE,44,3.0,4.0,77,0.00,,,0.00,Wunderground v.1.15,2013-02-10 17:01:00,
2013-02-10 09:07:00,44.9,37.1,29.74,NNE,24,4.0,4.0,74,0.00,,,0.00,Wunderground v.1.15,2013-02-10 17:07:00,
2013-02-10 09:12:00,45.6,37.4,29.74,ENE,66,4.0,5.0,73,0.00,,,0.00,Wunderground v.1.15,2013-02-10 17:12:00,
2013-02-10 09:17:00,46.2,37.7,29.74,East,98,3.0,5.0,72,0.00,,,0.00,Wunderground v.1.15,2013-02-10 17:17:00,
2013-02-10 09:23:00,47.0,37.4,29.74,ENE,60,2.0,5.0,69,0.00,,,0.00,Wunderground v.1.15,2013-02-10 17:23:00,
2013-02-10 09:29:00,47.7,37.7,29.74,NE,56,3.0,5.0,68,0.00,,,0.00,Wunderground v.1.15,2013-02-10 17:29:00,
2013-02-10 09:34:00,48.0,37.9,29.73,ENE,61,3.0,7.0,68,0.00,,,0.00,Wunderground v.1.15,2013-02-10 17:34:00,
2013-02-10 09:39:00,48.4,37.2,29.73,ENE,73,3.0,7.0,65,0.00,,,0.00,Wunderground v.1.15,2013-02-10 17:39:00,
2013-02-10 09:45:00,48.8,36.8,29.73,East,94,3.0,5.0,63,0.00,,,0.00,Wunderground v.1.15,2013-02-10 17:45:00,
2013-02-10 09:50:00,49.3,36.8,29.73,NE,40,3.0,5.0,62,0.00,,,0.00,Wunderground v.1.15,2013-02-10 17:50:00,
2013-02-10 09:56:00,49.8,37.7,29.73,North,360,2.0,5.0,63,0.00,,,0.00,Wunderground v.1.15,2013-02-10 17:56:00,
2013-02-10 10:02:00,50.2,37.3,29.73,ESE,120,2.0,3.0,61,0.00,,,0.00,Wunderground v.1.15,2013-02-10 18:02:00,
2013-02-10 10:08:00,50.7,37.3,29.73,East,90,2.0,5.0,60,0.00,,,0.00,Wunderground v.1.15,2013-02-10 18:08:00,
2013-02-10 10:13:00,51.4,38.0,29.72,SE,124,2.0,4.0,60,0.00,,,0.00,Wunderground v.1.15,2013-02-10 18:13:00,
2013-02-10 10:18:00,51.7,37.8,29.72,ESE,105,2.0,4.0,59,0.00,,,0.00,Wunderground v.1.15,2013-02-10 18:18:00,
2013-02-10 10:24:00,51.8,38.8,29.72,ESE,103,2.0,5.0,61,0.00,,,0.00,Wunderground v.1.15,2013-02-10 18:24:00,
2013-02-10 10:29:00,52.1,38.6,29.72,ESE,119,2.0,5.0,60,0.00,,,0.00,Wunderground v.1.15,2013-02-10 18:29:00,
2013-02-10 10:34:00,52.5,39.0,29.72,NE,51,2.0,4.0,60,0.00,,,0.00,Wunderground v.1.15,2013-02-10 18:34:00,
2013-02-10 10:40:00,53.1,39.1,29.72,SSE,147,1.0,1.0,59,0.00,,,0.00,Wunderground v.1.15,2013-02-10 18:40:00,
2013-02-10 10:46:00,53.9,40.8,29.72,SSE,166,1.0,4.0,61,0.00,,,0.00,Wunderground v.1.15,2013-02-10 18:46:00,
2013-02-10 10:51:00,54.2,39.7,29.72,East,98,2.0,2.0,58,0.00,,,0.00,Wunderground v.1.15,2013-02-10 18:51:00,
2013-02-10 10:57:00,54.0,39.1,29.72,East,80,1.0,2.0,57,0.00,,,0.00,Wunderground v.1.15,2013-02-10 18:57:00,
2013-02-10 11:02:00,54.0,39.5,29.71,SSE,165,1.0,3.0,58,0.00,,,0.00,Wunderground v.1.15,2013-02-10 19:02:00,
2013-02-10 11:07:00,53.7,40.6,29.71,ESE,118,2.0,3.0,61,0.00,,,0.00,Wunderground v.1.15,2013-02-10 19:07:00,
2013-02-10 11:13:00,53.6,39.6,29.71,SE,142,1.0,3.0,59,0.00,,,0.00,Wunderground v.1.15,2013-02-10 19:13:00,
2013-02-10 11:18:00,53.6,39.6,29.71,SW,236,1.0,4.0,59,0.00,,,0.00,Wunderground v.1.15,2013-02-10 19:18:00,
2013-02-10 11:23:00,53.4,39.0,29.70,WSW,254,2.0,3.0,58,0.00,,,0.00,Wunderground v.1.15,2013-02-10 19:23:00,
2013-02-10 11:29:00,53.6,40.0,29.70,WSW,247,2.0,3.0,60,0.00,,,0.00,Wunderground v.1.15,2013-02-10 19:29:00,
2013-02-10 11:35:00,53.8,39.4,29.70,WSW,238,1.0,5.0,58,0.00,,,0.00,Wunderground v.1.15,2013-02-10 19:35:00,
2013-02-10 11:40:00,53.6,39.2,29.70,WSW,238,1.0,2.0,58,0.00,,,0.00,Wunderground v.1.15,2013-02-10 19:40:00,
2013-02-10 11:45:00,53.5,39.1,29.69,SW,228,0.0,2.0,58,0.00,,,0.00,Wunderground v.1.15,2013-02-10 19:45:00,
2013-02-10 11:51:00,53.9,39.0,29.69,SW,215,1.0,1.0,57,0.00,,,0.00,Wunderground v.1.15,2013-02-10 19:51:00,
2013-02-10 11:57:00,54.6,40.1,29.69,West,274,1.0,1.0,58,0.00,,,0.00,Wunderground v.1.15,2013-02-10 19:57:00,
2013-02-10 12:03:00,55.3,39.9,29.69,WSW,252,2.0,3.0,56,0.00,,,0.00,Wunderground v.1.15,2013-02-10 20:03:00,
2013-02-10 12:09:00,55.5,39.1,29.68,WNW,291,2.0,3.0,54,0.00,,,0.00,Wunderground v.1.15,2013-02-10 20:09:00,
2013-02-10 12:15:00,55.7,38.8,29.68,NW,323,1.0,3.0,53,0.00,,,0.00,Wunderground v.1.15,2013-02-10 20:15:00,
2013-02-10 12:20:00,55.6,38.2,29.68,NNW,342,1.0,1.0,52,0.00,,,0.00,Wunderground v.1.15,2013-02-10 20:20:00,
2013-02-10 12:25:00,55.4,37.6,29.68,West,280,1.0,3.0,51,0.00,,,0.00,Wunderground v.1.15,2013-02-10 20:25:00,
2013-02-10 12:31:00,55.1,37.8,29.67,SSE,164,1.0,1.0,52,0.00,,,0.00,Wunderground v.1.15,2013-02-10 20:31:00,
2013-02-10 12:37:00,55.0,36.7,29.67,South,180,1.0,1.0,50,0.00,,,0.00,Wunderground v.1.15,2013-02-10 20:37:00,
2013-02-10 12:42:00,54.7,36.9,29.67,South,178,0.0,1.0,51,0.00,,,0.00,Wunderground v.1.15,2013-02-10 20:42:00,
2013-02-10 12:47:00,54.6,37.3,29.67,WSW,237,0.0,3.0,52,0.00,,,0.00,Wunderground v.1.15,2013-02-10 20:47:00,
2013-02-10 12:52:00,54.9,39.5,29.66,SSW,210,1.0,4.0,56,0.00,,,0.00,Wunderground v.1.15,2013-02-10 20:52:00,
2013-02-10 12:58:00,54.8,39.8,29.66,South,172,2.0,5.0,57,0.00,,,0.00,Wunderground v.1.15,2013-02-10 20:58:00,
2013-02-10 13:04:00,54.3,39.8,29.66,SW,215,3.0,5.0,58,0.00,,,0.00,Wunderground v.1.15,2013-02-10 21:04:00,
2013-02-10 13:10:00,53.9,39.9,29.66,South,173,4.0,4.0,59,0.00,,,0.00,Wunderground v.1.15,2013-02-10 21:10:00,
2013-02-10 13:15:00,53.7,40.6,29.66,SSW,212,3.0,4.0,61,0.00,,,0.00,Wunderground v.1.15,2013-02-10 21:15:00,
2013-02-10 13:21:00,53.7,40.6,29.66,South,177,2.0,4.0,61,0.00,,,0.00,Wunderground v.1.15,2013-02-10 21:21:00,
2013-02-10 13:26:00,53.5,39.9,29.66,SSW,213,2.0,5.0,60,0.00,,,0.00,Wunderground v.1.15,2013-02-10 21:26:00,
2013-02-10 13:31:00,53.3,40.2,29.65,SSE,162,3.0,5.0,61,0.00,,,0.00,Wunderground v.1.15,2013-02-10 21:31:00,
2013-02-10 13:36:00,53.2,40.9,29.65,South,189,3.0,5.0,63,0.00,,,0.00,Wunderground v.1.15,2013-02-10 21:36:00,
2013-02-10 13:41:00,53.3,40.6,29.65,SW,215,2.0,3.0,62,0.00,,,0.00,Wunderground v.1.15,2013-02-10 21:41:00,
2013-02-10 13:47:00,53.4,40.3,29.65,SW,217,2.0,6.0,61,0.00,,,0.00,Wunderground v.1.15,2013-02-10 21:47:00,
2013-02-10 13:52:00,53.5,40.8,29.65,SW,231,2.0,3.0,62,0.00,,,0.00,Wunderground v.1.15,2013-02-10 21:52:00,
2013-02-10 13:58:00,53.6,40.5,29.65,SSW,208,3.0,5.0,61,0.00,,,0.00,Wunderground v.1.15,2013-02-10 21:58:00,
2013-02-10 14:04:00,53.7,41.0,29.65,South,178,3.0,4.0,62,0.00,,,0.00,Wunderground v.1.15,2013-02-10 22:04:00,
2013-02-10 14:10:00,53.7,40.6,29.65,South,182,3.0,3.0,61,0.00,,,0.00,Wunderground v.1.15,2013-02-10 22:10:00,
2013-02-10 14:15:00,53.8,40.7,29.65,SSW,211,3.0,6.0,61,0.00,,,0.00,Wunderground v.1.15,2013-02-10 22:15:00,
2013-02-10 14:20:00,53.9,40.8,29.65,SSW,198,3.0,4.0,61,0.00,,,0.00,Wunderground v.1.15,2013-02-10 22:20:00,
2013-02-10 14:26:00,53.8,40.7,29.65,SSW,211,3.0,5.0,61,0.00,,,0.00,Wunderground v.1.15,2013-02-10 22:26:00,
2013-02-10 14:31:00,53.6,40.9,29.65,SSW,209,3.0,5.0,62,0.00,,,0.00,Wunderground v.1.15,2013-02-10 22:31:00,
2013-02-10 14:37:00,53.4,40.7,29.65,SW,216,3.0,7.0,62,0.00,,,0.00,Wunderground v.1.15,2013-02-10 22:37:00,
2013-02-10 14:43:00,53.3,41.0,29.65,SSW,202,3.0,7.0,63,0.00,,,0.00,Wunderground v.1.15,2013-02-10 22:43:00,
2013-02-10 14:48:00,53.2,40.9,29.65,South,175,3.0,7.0,63,0.00,,,0.00,Wunderground v.1.15,2013-02-10 22:48:00,
2013-02-10 14:54:00,53.1,41.2,29.65,South,171,3.0,7.0,64,0.00,,,0.00,Wunderground v.1.15,2013-02-10 22:54:00,
2013-02-10 14:59:00,52.9,41.0,29.65,SSW,213,4.0,7.0,64,0.00,,,0.00,Wunderground v.1.15,2013-02-10 22:59:00,
2013-02-10 15:04:00,52.8,41.4,29.65,South,191,4.0,4.0,65,0.00,,,0.00,Wunderground v.1.15,2013-02-10 23:04:00,
2013-02-10 15:10:00,52.8,41.7,29.65,SW,233,4.0,4.0,66,0.00,,,0.00,Wunderground v.1.15,2013-02-10 23:10:00,
2013-02-10 15:15:00,52.8,41.7,29.65,SW,221,4.0,7.0,66,0.00,,,0.00,Wunderground v.1.15,2013-02-10 23:15:00,
2013-02-10 15:21:00,52.6,41.6,29.65,SW,216,4.0,5.0,66,0.00,,,0.00,Wunderground v.1.15,2013-02-10 23:21:00,
2013-02-10 15:27:00,52.6,41.9,29.65,SW,236,4.0,7.0,67,0.00,,,0.00,Wunderground v.1.15,2013-02-10 23:27:00,
2013-02-10 15:32:00,52.5,41.9,29.65,South,182,4.0,5.0,67,0.00,,,0.00,Wunderground v.1.15,2013-02-10 23:32:00,
2013-02-10 15:37:00,52.2,42.0,29.65,SW,236,4.0,5.0,68,0.00,,,0.00,Wunderground v.1.15,2013-02-10 23:37:00,
2013-02-10 15:43:00,51.9,41.7,29.65,SSW,206,3.0,7.0,68,0.00,,,0.00,Wunderground v.1.15,2013-02-10 23:43:00,
2013-02-10 15:49:00,51.7,41.5,29.65,SSW,203,3.0,7.0,68,0.00,,,0.00,Wunderground v.1.15,2013-02-10 23:49:00,
2013-02-10 15:55:00,51.5,41.3,29.64,SW,216,3.0,6.0,68,0.00,,,0.00,Wunderground v.1.15,2013-02-10 23:55:00,
2013-02-10 16:00:00,51.3,41.1,29.65,South,182,4.0,4.0,68,0.00,,,0.00,Wunderground v.1.15,2013-02-11 00:00:00,
2013-02-10 16:06:00,51.7,41.5,29.65,South,191,3.0,5.0,68,0.00,,,0.00,Wunderground v.1.15,2013-02-11 00:06:00,
2013-02-10 16:12:00,52.3,41.7,29.65,SW,224,3.0,4.0,67,0.00,,,0.00,Wunderground v.1.15,2013-02-11 00:12:00,
2013-02-10 16:18:00,52.1,41.1,29.65,SSW,195,3.0,5.0,66,0.00,,,0.00,Wunderground v.1.15,2013-02-11 00:18:00,
2013-02-10 16:24:00,52.0,41.8,29.65,SSW,199,3.0,4.0,68,0.00,,,0.00,Wunderground v.1.15,2013-02-11 00:24:00,
2013-02-10 16:29:00,52.0,41.4,29.65,SSW,211,3.0,6.0,67,0.00,,,0.00,Wunderground v.1.15,2013-02-11 00:29:00,
2013-02-10 16:34:00,51.9,41.7,29.65,SSW,198,3.0,4.0,68,0.00,,,0.00,Wunderground v.1.15,2013-02-11 00:34:00,
2013-02-10 16:39:00,51.6,41.8,29.65,SW,226,3.0,5.0,69,0.00,,,0.00,Wunderground v.1.15,2013-02-11 00:39:00,
2013-02-10 16:45:00,51.3,41.8,29.65,SW,216,3.0,4.0,70,0.00,,,0.00,Wunderground v.1.15,2013-02-11 00:45:00,
2013-02-10 16:51:00,51.1,42.0,29.65,SSW,213,3.0,3.0,71,0.00,,,0.00,Wunderground v.1.15,2013-02-11 00:51:00,
2013-02-10 16:57:00,50.7,42.0,29.65,SW,217,2.0,4.0,72,0.00,,,0.00,Wunderground v.1.15,2013-02-11 00:57:00,
2013-02-10 17:03:00,50.3,42.0,29.65,SSW,196,1.0,3.0,73,0.00,,,0.00,Wunderground v.1.15,2013-02-11 01:03:00,
2013-02-10 17:09:00,49.9,41.6,29.65,South,177,1.0,3.0,73,0.00,,,0.00,Wunderground v.1.15,2013-02-11 01:09:00,
2013-02-10 17:14:00,49.5,41.6,29.65,SSW,213,1.0,2.0,74,0.00,,,0.00,Wunderground v.1.15,2013-02-11 01:14:00,
2013-02-10 17:20:00,49.3,41.4,29.65,WSW,246,1.0,1.0,74,0.00,,,0.00,Wunderground v.1.15,2013-02-11 01:20:00,
2013-02-10 17:25:00,48.9,41.3,29.65,WSW,242,1.0,1.0,75,0.00,,,0.00,Wunderground v.1.15,2013-02-11 01:25:00,
2013-02-10 17:31:00,48.4,41.2,29.66,West,262,1.0,1.0,76,0.00,,,0.00,Wunderground v.1.15,2013-02-11 01:31:00,
2013-02-10 17:36:00,47.9,41.0,29.66,West,262,0.0,1.0,77,0.00,,,0.00,Wunderground v.1.15,2013-02-11 01:36:00,
2013-02-10 17:41:00,47.4,40.9,29.66,West,262,0.0,0.0,78,0.00,,,0.00,Wunderground v.1.15,2013-02-11 01:41:00,
2013-02-10 17:47:00,46.7,40.9,29.66,West,262,0.0,0.0,80,0.00,,,0.00,Wunderground v.1.15,2013-02-11 01:47:00,
2013-02-10 17:52:00,46.1,40.6,29.66,West,262,0.0,0.0,81,0.00,,,0.00,Wunderground v.1.15,2013-02-11 01:52:00,
2013-02-10 17:58:00,45.4,40.2,29.66,West,262,0.0,1.0,82,0.00,,,0.00,Wunderground v.1.15,2013-02-11 01:58:00,
2013-02-10 18:04:00,44.7,40.2,29.66,WNW,302,0.0,1.0,84,0.00,,,0.00,Wunderground v.1.15,2013-02-11 02:04:00,
2013-02-10 18:10:00,44.1,39.9,29.66,WNW,295,1.0,1.0,85,0.00,,,0.00,Wunderground v.1.15,2013-02-11 02:10:00,
2013-02-10 18:16:00,43.8,39.9,29.66,WNW,298,1.0,2.0,86,0.00,,,0.00,Wunderground v.1.15,2013-02-11 02:16:00,
2013-02-10 18:21:00,43.5,39.9,29.66,WNW,298,0.0,0.0,87,0.00,,,0.00,Wunderground v.1.15,2013-02-11 02:21:00,
2013-02-10 18:26:00,43.2,39.6,29.66,WNW,298,0.0,1.0,87,0.00,,,0.00,Wunderground v.1.15,2013-02-11 02:26:00,
2013-02-10 18:33:00,42.9,39.6,29.67,WNW,298,0.0,1.0,88,0.00,,,0.00,Wunderground v.1.15,2013-02-11 02:33:00,
2013-02-10 18:39:00,42.6,39.3,29.67,WNW,298,0.0,1.0,88,0.00,,,0.00,Wunderground v.1.15,2013-02-11 02:39:00,
2013-02-10 18:44:00,42.3,39.0,29.67,WNW,303,0.0,1.0,88,0.00,,,0.00,Wunderground v.1.15,2013-02-11 02:44:00,
2013-02-10 18:50:00,42.0,39.0,29.67,NW,305,1.0,1.0,89,0.00,,,0.00,Wunderground v.1.15,2013-02-11 02:50:00,
2013-02-10 18:56:00,41.7,39.0,29.67,WNW,301,1.0,1.0,90,0.00,,,0.00,Wunderground v.1.15,2013-02-11 02:56:00,
2013-02-10 19:02:00,41.6,38.9,29.67,WNW,299,0.0,1.0,90,0.00,,,0.00,Wunderground v.1.15,2013-02-11 03:02:00,
2013-02-10 19:07:00,41.5,39.1,29.67,WNW,295,1.0,2.0,91,0.00,,,0.00,Wunderground v.1.15,2013-02-11 03:07:00,
2013-02-10 19:13:00,41.4,39.0,29.67,ENE,67,0.0,2.0,91,0.00,,,0.00,Wunderground v.1.15,2013-02-11 03:13:00,
2013-02-10 19:19:00,41.4,39.0,29.67,ENE,68,0.0,2.0,91,0.00,,,0.00,Wunderground v.1.15,2013-02-11 03:19:00,
2013-02-10 19:24:00,41.3,38.9,29.68,ENE,68,0.0,0.0,91,0.00,,,0.00,Wunderground v.1.15,2013-02-11 03:24:00,
2013-02-10 19:30:00,41.0,38.6,29.67,ENE,68,0.0,0.0,91,0.00,,,0.00,Wunderground v.1.15,2013-02-11 03:30:00,
2013-02-10 19:35:00,40.6,37.9,29.67,NE,34,0.0,1.0,90,0.00,,,0.00,Wunderground v.1.15,2013-02-11 03:35:00,
2013-02-10 19:41:00,40.1,37.4,29.68,North,5,0.0,1.0,90,0.00,,,0.00,Wunderground v.1.15,2013-02-11 03:41:00,
2013-02-10 19:46:00,39.8,37.4,29.68,NNW,346,0.0,2.0,91,0.00,,,0.00,Wunderground v.1.15,2013-02-11 03:46:00,
2013-02-10 19:52:00,39.7,37.6,29.68,NNW,333,1.0,1.0,92,0.00,,,0.00,Wunderground v.1.15,2013-02-11 03:52:00,
2013-02-10 19:57:00,39.4,37.3,29.68,NW,325,1.0,1.0,92,0.00,,,0.00,Wunderground v.1.15,2013-02-11 03:57:00,
2013-02-10 20:02:00,39.3,37.2,29.68,NNW,333,1.0,1.0,92,0.00,,,0.00,Wunderground v.1.15,2013-02-11 04:02:00,
2013-02-10 20:07:00,39.1,37.0,29.68,NNW,333,0.0,1.0,92,0.00,,,0.00,Wunderground v.1.15,2013-02-11 04:07:00,
2013-02-10 20:12:00,38.9,36.8,29.68,NNW,333,0.0,0.0,92,0.00,,,0.00,Wunderground v.1.15,2013-02-11 04:12:00,
2013-02-10 20:18:00,38.7,36.6,29.68,NNW,333,0.0,0.0,92,0.00,,,0.00,Wunderground v.1.15,2013-02-11 04:18:00,
2013-02-10 20:23:00,38.5,36.4,29.68,NNE,27,0.0,0.0,92,0.00,,,0.00,Wunderground v.1.15,2013-02-11 04:23:00,
2013-02-10 20:29:00,38.4,36.6,29.69,NNE,31,0.0,0.0,93,0.00,,,0.00,Wunderground v.1.15,2013-02-11 04:29:00,
2013-02-10 20:34:00,38.2,36.1,29.69,North,9,0.0,0.0,92,0.00,,,0.00,Wunderground v.1.15,2013-02-11 04:34:00,
2013-02-10 20:40:00,37.8,35.7,29.69,North,5,0.0,1.0,92,0.00,,,0.00,Wunderground v.1.15,2013-02-11 04:40:00,
2013-02-10 20:45:00,37.5,35.4,29.69,North,5,0.0,1.0,92,0.00,,,0.00,Wunderground v.1.15,2013-02-11 04:45:00,
2013-02-10 20:51:00,37.4,35.6,29.69,North,9,0.0,1.0,93,0.00,,,0.00,Wunderground v.1.15,2013-02-11 04:51:00,
2013-02-10 20:56:00,37.3,35.5,29.69,NE,43,0.0,1.0,93,0.00,,,0.00,Wunderground v.1.15,2013-02-11 04:56:00,
2013-02-10 21:00:00,37.2,35.4,29.69,NE,34,1.0,1.0,93,0.00,,,0.00,Wunderground v.1.15,2013-02-11 05:00:00,
2013-02-10 21:01:00,37.2,35.4,29.69,NE,34,1.0,1.0,93,0.00,,,0.00,Wunderground v.1.15,2013-02-11 05:01:00,
2013-02-10 21:02:00,37.2,35.4,29.69,NE,34,1.0,1.0,93,0.00,,,0.00,Wunderground v.1.15,2013-02-11 05:02:00,
2013-02-10 21:05:00,37.2,35.4,29.69,NE,34,0.0,1.0,93,0.00,,,0.00,Wunderground v.1.15,2013-02-11 05:05:00,
2013-02-10 21:10:00,37.1,35.3,29.69,NNE,14,0.0,1.0,93,0.00,,,0.00,Wunderground v.1.15,2013-02-11 05:10:00,
2013-02-10 21:15:00,36.9,35.1,29.69,NW,308,0.0,1.0,93,0.00,,,0.00,Wunderground v.1.15,2013-02-11 05:15:00,
2013-02-10 21:20:00,36.7,34.9,29.69,NW,308,0.0,0.0,93,0.00,,,0.00,Wunderground v.1.15,2013-02-11 05:20:00,
2013-02-10 21:25:00,36.7,34.9,29.69,NW,308,0.0,0.0,93,0.00,,,0.00,Wunderground v.1.15,2013-02-11 05:25:00,
2013-02-10 21:30:00,36.8,35.2,29.69,NW,306,0.0,0.0,94,0.00,,,0.00,Wunderground v.1.15,2013-02-11 05:30:00,
2013-02-10 21:36:00,36.8,35.2,29.69,NW,306,0.0,0.0,94,0.00,,,0.00,Wunderground v.1.15,2013-02-11 05:36:00,
2013-02-10 21:42:00,36.5,34.7,29.69,NW,306,0.0,0.0,93,0.00,,,0.00,Wunderground v.1.15,2013-02-11 05:42:00,
2013-02-10 21:48:00,36.3,34.7,29.69,North,5,0.0,1.0,94,0.00,,,0.00,Wunderground v.1.15,2013-02-11 05:48:00,
2013-02-10 21:54:00,36.2,34.6,29.69,NE,40,1.0,1.0,94,0.00,,,0.00,Wunderground v.1.15,2013-02-11 05:54:00,
2013-02-10 22:00:00,36.1,34.5,29.69,NE,35,0.0,0.0,94,0.00,,,0.00,Wunderground v.1.15,2013-02-11 06:00:00,
2013-02-10 22:05:00,35.9,34.3,29.69,NNE,31,0.0,1.0,94,0.00,,,0.00,Wunderground v.1.15,2013-02-11 06:05:00,
2013-02-10 22:11:00,35.6,34.0,29.70,NNW,346,1.0,2.0,94,0.00,,,0.00,Wunderground v.1.15,2013-02-11 06:11:00,
2013-02-10 22:17:00,35.5,33.9,29.70,NNW,345,1.0,2.0,94,0.00,,,0.00,Wunderground v.1.15,2013-02-11 06:17:00,
2013-02-10 22:23:00,35.4,33.8,29.70,NE,40,0.0,0.0,94,0.00,,,0.00,Wunderground v.1.15,2013-02-11 06:23:00,
2013-02-10 22:28:00,35.5,33.9,29.70,East,98,0.0,0.0,94,0.00,,,0.00,Wunderground v.1.15,2013-02-11 06:28:00,
2013-02-10 22:34:00,35.4,33.8,29.70,East,98,0.0,0.0,94,0.00,,,0.00,Wunderground v.1.15,2013-02-11 06:34:00,
2013-02-10 22:39:00,35.3,33.7,29.70,East,88,0.0,1.0,94,0.00,,,0.00,Wunderground v.1.15,2013-02-11 06:39:00,
2013-02-10 22:44:00,35.0,33.4,29.70,NNE,12,0.0,1.0,94,0.00,,,0.00,Wunderground v.1.15,2013-02-11 06:44:00,
2013-02-10 22:49:00,34.8,33.2,29.70,NNE,12,0.0,1.0,94,0.00,,,0.00,Wunderground v.1.15,2013-02-11 06:49:00,
2013-02-10 22:55:00,34.7,33.2,29.71,NNE,12,0.0,0.0,94,0.00,,,0.00,Wunderground v.1.15,2013-02-11 06:55:00,
2013-02-10 23:00:00,34.5,33.0,29.71,NNE,12,0.0,0.0,94,0.00,,,0.00,Wunderground v.1.15,2013-02-11 07:00:00,
2013-02-10 23:05:00,34.2,32.7,29.71,NNE,12,0.0,0.0,94,0.00,,,0.00,Wunderground v.1.15,2013-02-11 07:05:00,
2013-02-10 23:11:00,34.0,32.5,29.71,NNE,12,0.0,0.0,94,0.00,,,0.00,Wunderground v.1.15,2013-02-11 07:11:00,
2013-02-10 23:17:00,34.0,32.5,29.71,NNE,12,0.0,0.0,94,0.00,,,0.00,Wunderground v.1.15,2013-02-11 07:17:00,
2013-02-10 23:22:00,33.9,32.6,29.71,NNE,12,0.0,0.0,95,0.00,,,0.00,Wunderground v.1.15,2013-02-11 07:22:00,
2013-02-10 23:28:00,33.8,32.3,29.71,NNE,12,1.0,2.0,94,0.00,,,0.00,Wunderground v.1.15,2013-02-11 07:28:00,
2013-02-10 23:34:00,33.7,32.4,29.71,NNE,24,1.0,1.0,95,0.00,,,0.00,Wunderground v.1.15,2013-02-11 07:34:00,
2013-02-10 23:39:00,33.8,32.5,29.71,NNE,24,0.0,1.0,95,0.00,,,0.00,Wunderground v.1.15,2013-02-11 07:39:00,
2013-02-10 23:45:00,33.9,32.6,29.72,NNE,24,0.0,0.0,95,0.00,,,0.00,Wunderground v.1.15,2013-02-11 07:45:00,
2013-02-10 23:50:00,33.8,32.5,29.72,NNE,24,0.0,0.0,95,0.00,,,0.00,Wunderground v.1.15,2013-02-11 07:50:00,
2013-02-10 23:56:00,33.6,32.3,29.72,NNE,24,0.0,0.0,95,0.00,,,0.00,Wunderground v.1.15,2013-02-11 07:56:00,